Columbus Municipal Airport
KBAK : now visible

Airfield :











YOU CAN JOIN US ON...

 
LOGIN :

Register | Disclaimer

   EN    FR    IT 

 









Legend :    VFR   Marginal VFR   IFR   Intensive IFR   Very Intensive IFR
Visi :
Ceiling :
>= 8 km
>= 3000ft
5 to 8 km
1000 to 3000 ft
1500m to 5 km
500 to 1000 ft
800 to 1500m
200 to 500 ft
< 800m
< 200 ft
Symbols :   Thunderstorms  Fog  Heavy snow  Heavy precipitations  Wind > 20 kt







- Airport Elevation : 656 ft


KBAK - Columbus Municipal

CURRENT METAR :
  • 211545Z 00000KT 10SM FEW005 FEW200 09/06 A3011

EXPIRED METARs :
  • 211506Z 00000KT 8SM SCT005 07/05 A3009
  • 211458Z 13003KT 6SM BR BKN005 07/05 A3009
  • 211451Z 00000KT 5SM BR BKN003 06/05 A3009
  • 211429Z 00000KT 1SM BR OVC002 05/04 A3008
  • 211345Z 15003KT 1/4SM FG OVC001 04/03 A3008

TAF N/A
KZID FIR / North America



MET'MAP, your aeronautical weather chart ! - Copyright ORBIFLY December 2007 - Disclaimer

ORBIFLY MET'MAP TEAM :

Programming & Development : Alexandra Zaïnal
Concept & Development : Baudouin d'Aumeries
Co-Development & Prog : Marc-Olivier Méhu
Technical & hardware support : Manuel Goepfert

Contact : metmap@orbifly.com




SOURCES & CREDITS :

   NOAA       Earth
Advisory